sensor_id;sensor_type;location;lat;lon;timestamp;P1;durP1;ratioP1;P2;durP2;ratioP2
22449;SDS011;11392;57.390;-2.468;2023-07-13T00:01:53;4.22;;;2.50;;
22449;SDS011;11392;57.390;-2.468;2023-07-13T00:04:21;5.93;;;2.70;;
22449;SDS011;11392;57.390;-2.468;2023-07-13T00:06:52;3.38;;;2.28;;
22449;SDS011;11392;57.390;-2.468;2023-07-13T00:09:20;2.75;;;2.50;;
22449;SDS011;11392;57.390;-2.468;2023-07-13T00:11:54;2.97;;;2.65;;
22449;SDS011;11392;57.390;-2.468;2023-07-13T00:14:23;3.80;;;2.40;;
22449;SDS011;11392;57.390;-2.468;2023-07-13T00:16:52;2.30;;;2.10;;
22449;SDS011;11392;57.390;-2.468;2023-07-13T00:19:20;3.42;;;2.10;;
22449;SDS011;11392;57.390;-2.468;2023-07-13T00:21:47;3.90;;;3.47;;
22449;SDS011;11392;57.390;-2.468;2023-07-13T00:24:15;5.15;;;2.40;;
22449;SDS011;11392;57.390;-2.468;2023-07-13T00:26:50;4.35;;;2.88;;
22449;SDS011;11392;57.390;-2.468;2023-07-13T00:29:17;6.63;;;3.13;;
22449;SDS011;11392;57.390;-2.468;2023-07-13T00:31:44;5.45;;;2.35;;
22449;SDS011;11392;57.390;-2.468;2023-07-13T00:34:12;3.45;;;2.55;;
22449;SDS011;11392;57.390;-2.468;2023-07-13T00:36:40;2.70;;;2.25;;
22449;SDS011;11392;57.390;-2.468;2023-07-13T00:39:07;5.00;;;2.40;;
22449;SDS011;11392;57.390;-2.468;2023-07-13T00:41:34;3.45;;;2.30;;
22449;SDS011;11392;57.390;-2.468;2023-07-13T00:44:03;3.03;;;2.42;;
22449;SDS011;11392;57.390;-2.468;2023-07-13T00:46:33;4.22;;;2.10;;
22449;SDS011;11392;57.390;-2.468;2023-07-13T00:49:02;5.65;;;2.42;;
22449;SDS011;11392;57.390;-2.468;2023-07-13T00:51:39;3.67;;;1.95;;
22449;SDS011;11392;57.390;-2.468;2023-07-13T00:54:16;3.95;;;2.13;;
22449;SDS011;11392;57.390;-2.468;2023-07-13T00:56:48;3.85;;;2.10;;
22449;SDS011;11392;57.390;-2.468;2023-07-13T00:59:18;4.45;;;2.30;;
22449;SDS011;11392;57.390;-2.468;2023-07-13T01:01:47;4.32;;;2.00;;
22449;SDS011;11392;57.390;-2.468;2023-07-13T01:04:15;3.65;;;1.63;;
22449;SDS011;11392;57.390;-2.468;2023-07-13T01:06:43;2.35;;;1.90;;
22449;SDS011;11392;57.390;-2.468;2023-07-13T01:09:11;2.25;;;1.77;;
22449;SDS011;11392;57.390;-2.468;2023-07-13T01:11:39;7.53;;;2.10;;
22449;SDS011;11392;57.390;-2.468;2023-07-13T01:14:08;3.75;;;1.90;;
22449;SDS011;11392;57.390;-2.468;2023-07-13T01:16:35;3.85;;;1.80;;
22449;SDS011;11392;57.390;-2.468;2023-07-13T01:19:16;2.05;;;1.77;;
22449;SDS011;11392;57.390;-2.468;2023-07-13T01:22:13;5.20;;;2.10;;
22449;SDS011;11392;57.390;-2.468;2023-07-13T01:24:42;2.95;;;1.70;;
22449;SDS011;11392;57.390;-2.468;2023-07-13T01:27:13;4.90;;;2.03;;
22449;SDS011;11392;57.390;-2.468;2023-07-13T01:29:44;2.53;;;2.28;;
22449;SDS011;11392;57.390;-2.468;2023-07-13T01:32:15;2.45;;;1.67;;
22449;SDS011;11392;57.390;-2.468;2023-07-13T01:34:50;3.35;;;1.70;;
22449;SDS011;11392;57.390;-2.468;2023-07-13T01:37:20;2.50;;;1.90;;
22449;SDS011;11392;57.390;-2.468;2023-07-13T01:39:48;5.38;;;1.98;;
22449;SDS011;11392;57.390;-2.468;2023-07-13T01:42:15;1.67;;;1.58;;
22449;SDS011;11392;57.390;-2.468;2023-07-13T01:44:42;2.28;;;2.08;;
22449;SDS011;11392;57.390;-2.468;2023-07-13T01:47:09;3.25;;;1.70;;
22449;SDS011;11392;57.390;-2.468;2023-07-13T01:49:37;2.88;;;2.10;;
22449;SDS011;11392;57.390;-2.468;2023-07-13T01:52:04;2.05;;;1.90;;
22449;SDS011;11392;57.390;-2.468;2023-07-13T01:54:31;3.90;;;1.90;;
22449;SDS011;11392;57.390;-2.468;2023-07-13T01:57:00;1.85;;;1.75;;
22449;SDS011;11392;57.390;-2.468;2023-07-13T01:59:27;2.25;;;1.98;;
22449;SDS011;11392;57.390;-2.468;2023-07-13T02:01:54;2.55;;;1.80;;
22449;SDS011;11392;57.390;-2.468;2023-07-13T02:04:21;4.07;;;2.20;;
22449;SDS011;11392;57.390;-2.468;2023-07-13T02:06:48;1.80;;;1.60;;
22449;SDS011;11392;57.390;-2.468;2023-07-13T02:09:15;2.70;;;1.98;;
22449;SDS011;11392;57.390;-2.468;2023-07-13T02:11:42;2.60;;;2.05;;
22449;SDS011;11392;57.390;-2.468;2023-07-13T02:14:10;3.55;;;2.17;;
22449;SDS011;11392;57.390;-2.468;2023-07-13T02:16:37;2.45;;;1.95;;
22449;SDS011;11392;57.390;-2.468;2023-07-13T02:19:04;2.17;;;1.98;;
22449;SDS011;11392;57.390;-2.468;2023-07-13T02:21:32;3.05;;;2.35;;
22449;SDS011;11392;57.390;-2.468;2023-07-13T02:23:59;1.70;;;1.58;;
22449;SDS011;11392;57.390;-2.468;2023-07-13T02:26:27;2.92;;;1.92;;
22449;SDS011;11392;57.390;-2.468;2023-07-13T02:28:54;2.08;;;1.83;;
22449;SDS011;11392;57.390;-2.468;2023-07-13T02:31:21;2.95;;;1.88;;
22449;SDS011;11392;57.390;-2.468;2023-07-13T02:33:48;7.15;;;1.90;;
22449;SDS011;11392;57.390;-2.468;2023-07-13T02:36:15;2.95;;;2.22;;
22449;SDS011;11392;57.390;-2.468;2023-07-13T02:38:42;2.83;;;1.92;;
22449;SDS011;11392;57.390;-2.468;2023-07-13T02:41:09;1.50;;;1.40;;
22449;SDS011;11392;57.390;-2.468;2023-07-13T02:43:37;2.72;;;2.20;;
22449;SDS011;11392;57.390;-2.468;2023-07-13T02:46:04;4.45;;;1.88;;
22449;SDS011;11392;57.390;-2.468;2023-07-13T02:48:34;2.33;;;1.67;;
22449;SDS011;11392;57.390;-2.468;2023-07-13T02:51:02;4.13;;;2.53;;
22449;SDS011;11392;57.390;-2.468;2023-07-13T02:53:30;3.45;;;1.90;;
22449;SDS011;11392;57.390;-2.468;2023-07-13T02:55:57;2.33;;;2.13;;
22449;SDS011;11392;57.390;-2.468;2023-07-13T02:58:24;3.78;;;1.67;;
22449;SDS011;11392;57.390;-2.468;2023-07-13T03:00:51;1.83;;;1.73;;
22449;SDS011;11392;57.390;-2.468;2023-07-13T03:03:19;7.65;;;2.20;;
22449;SDS011;11392;57.390;-2.468;2023-07-13T03:05:47;3.65;;;2.22;;
22449;SDS011;11392;57.390;-2.468;2023-07-13T03:08:16;2.58;;;1.88;;
22449;SDS011;11392;57.390;-2.468;2023-07-13T03:10:44;2.22;;;1.73;;
22449;SDS011;11392;57.390;-2.468;2023-07-13T03:13:11;2.88;;;1.77;;
22449;SDS011;11392;57.390;-2.468;2023-07-13T03:15:38;3.47;;;1.80;;
22449;SDS011;11392;57.390;-2.468;2023-07-13T03:18:05;2.63;;;2.10;;
22449;SDS011;11392;57.390;-2.468;2023-07-13T03:20:35;3.28;;;1.90;;
22449;SDS011;11392;57.390;-2.468;2023-07-13T03:23:02;1.95;;;1.70;;
22449;SDS011;11392;57.390;-2.468;2023-07-13T03:25:30;1.90;;;1.70;;
22449;SDS011;11392;57.390;-2.468;2023-07-13T03:27:56;4.97;;;2.05;;
22449;SDS011;11392;57.390;-2.468;2023-07-13T03:30:24;3.83;;;1.95;;
22449;SDS011;11392;57.390;-2.468;2023-07-13T03:32:51;2.40;;;1.90;;
22449;SDS011;11392;57.390;-2.468;2023-07-13T03:35:18;2.17;;;1.63;;
22449;SDS011;11392;57.390;-2.468;2023-07-13T03:37:45;2.33;;;2.13;;
22449;SDS011;11392;57.390;-2.468;2023-07-13T03:40:12;2.30;;;1.95;;
22449;SDS011;11392;57.390;-2.468;2023-07-13T03:42:39;2.90;;;1.98;;
22449;SDS011;11392;57.390;-2.468;2023-07-13T03:45:06;2.65;;;2.30;;
22449;SDS011;11392;57.390;-2.468;2023-07-13T03:47:34;1.88;;;1.65;;
22449;SDS011;11392;57.390;-2.468;2023-07-13T03:50:01;3.70;;;2.20;;
22449;SDS011;11392;57.390;-2.468;2023-07-13T03:52:29;4.47;;;1.80;;
22449;SDS011;11392;57.390;-2.468;2023-07-13T03:54:56;2.15;;;1.92;;
22449;SDS011;11392;57.390;-2.468;2023-07-13T03:57:23;2.75;;;1.90;;
22449;SDS011;11392;57.390;-2.468;2023-07-13T03:59:50;2.65;;;2.00;;
22449;SDS011;11392;57.390;-2.468;2023-07-13T04:02:17;5.93;;;2.33;;
22449;SDS011;11392;57.390;-2.468;2023-07-13T04:04:44;5.15;;;2.00;;
22449;SDS011;11392;57.390;-2.468;2023-07-13T04:07:11;3.47;;;2.10;;
22449;SDS011;11392;57.390;-2.468;2023-07-13T04:09:38;2.42;;;2.00;;
22449;SDS011;11392;57.390;-2.468;2023-07-13T04:12:05;3.50;;;2.28;;
22449;SDS011;11392;57.390;-2.468;2023-07-13T04:14:33;4.63;;;2.20;;
22449;SDS011;11392;57.390;-2.468;2023-07-13T04:17:00;2.35;;;2.15;;
22449;SDS011;11392;57.390;-2.468;2023-07-13T04:19:27;4.00;;;2.05;;
22449;SDS011;11392;57.390;-2.468;2023-07-13T04:21:54;2.60;;;1.90;;
22449;SDS011;11392;57.390;-2.468;2023-07-13T04:24:21;2.25;;;2.03;;
22449;SDS011;11392;57.390;-2.468;2023-07-13T04:26:48;2.15;;;1.90;;
22449;SDS011;11392;57.390;-2.468;2023-07-13T04:29:16;5.97;;;2.25;;
22449;SDS011;11392;57.390;-2.468;2023-07-13T04:31:43;3.17;;;2.20;;
22449;SDS011;11392;57.390;-2.468;2023-07-13T04:34:10;2.55;;;1.88;;
22449;SDS011;11392;57.390;-2.468;2023-07-13T04:36:37;2.60;;;2.40;;
22449;SDS011;11392;57.390;-2.468;2023-07-13T04:39:04;3.17;;;1.88;;
22449;SDS011;11392;57.390;-2.468;2023-07-13T04:41:31;2.15;;;1.95;;
22449;SDS011;11392;57.390;-2.468;2023-07-13T04:43:58;4.88;;;2.00;;
22449;SDS011;11392;57.390;-2.468;2023-07-13T04:46:25;2.85;;;2.05;;
22449;SDS011;11392;57.390;-2.468;2023-07-13T04:48:53;2.00;;;1.80;;
22449;SDS011;11392;57.390;-2.468;2023-07-13T04:51:20;2.63;;;1.75;;
22449;SDS011;11392;57.390;-2.468;2023-07-13T04:53:47;2.65;;;1.80;;
22449;SDS011;11392;57.390;-2.468;2023-07-13T04:56:16;3.10;;;1.80;;
22449;SDS011;11392;57.390;-2.468;2023-07-13T04:58:43;2.67;;;2.15;;
22449;SDS011;11392;57.390;-2.468;2023-07-13T05:01:11;2.25;;;2.00;;
22449;SDS011;11392;57.390;-2.468;2023-07-13T05:03:40;3.67;;;1.90;;
22449;SDS011;11392;57.390;-2.468;2023-07-13T05:06:07;1.90;;;1.60;;
22449;SDS011;11392;57.390;-2.468;2023-07-13T05:08:38;4.35;;;2.17;;
22449;SDS011;11392;57.390;-2.468;2023-07-13T05:11:05;2.28;;;1.85;;
22449;SDS011;11392;57.390;-2.468;2023-07-13T05:13:34;1.83;;;1.52;;
22449;SDS011;11392;57.390;-2.468;2023-07-13T05:16:02;3.17;;;1.90;;
22449;SDS011;11392;57.390;-2.468;2023-07-13T05:18:32;3.72;;;2.10;;
22449;SDS011;11392;57.390;-2.468;2023-07-13T05:21:00;2.10;;;1.80;;
22449;SDS011;11392;57.390;-2.468;2023-07-13T05:23:30;2.63;;;1.90;;
22449;SDS011;11392;57.390;-2.468;2023-07-13T05:25:58;1.85;;;1.70;;
22449;SDS011;11392;57.390;-2.468;2023-07-13T05:28:26;1.73;;;1.63;;
22449;SDS011;11392;57.390;-2.468;2023-07-13T05:30:55;1.80;;;1.70;;
22449;SDS011;11392;57.390;-2.468;2023-07-13T05:33:23;1.70;;;1.60;;
22449;SDS011;11392;57.390;-2.468;2023-07-13T05:35:51;3.03;;;1.70;;
22449;SDS011;11392;57.390;-2.468;2023-07-13T05:38:18;2.42;;;1.80;;
22449;SDS011;11392;57.390;-2.468;2023-07-13T05:40:45;2.47;;;1.90;;
22449;SDS011;11392;57.390;-2.468;2023-07-13T05:43:13;2.58;;;1.85;;
22449;SDS011;11392;57.390;-2.468;2023-07-13T05:45:40;1.77;;;1.67;;
22449;SDS011;11392;57.390;-2.468;2023-07-13T05:48:08;3.10;;;1.65;;
22449;SDS011;11392;57.390;-2.468;2023-07-13T05:50:35;1.80;;;1.70;;
22449;SDS011;11392;57.390;-2.468;2023-07-13T05:53:02;2.00;;;1.85;;
22449;SDS011;11392;57.390;-2.468;2023-07-13T05:55:29;4.97;;;1.75;;
22449;SDS011;11392;57.390;-2.468;2023-07-13T05:57:56;3.17;;;2.00;;
22449;SDS011;11392;57.390;-2.468;2023-07-13T06:00:24;3.25;;;1.80;;
22449;SDS011;11392;57.390;-2.468;2023-07-13T06:02:51;3.35;;;1.70;;
22449;SDS011;11392;57.390;-2.468;2023-07-13T06:05:19;2.50;;;1.65;;
22449;SDS011;11392;57.390;-2.468;2023-07-13T06:07:46;1.70;;;1.60;;
22449;SDS011;11392;57.390;-2.468;2023-07-13T06:10:13;1.88;;;1.67;;
22449;SDS011;11392;57.390;-2.468;2023-07-13T06:12:40;1.50;;;1.40;;
22449;SDS011;11392;57.390;-2.468;2023-07-13T06:15:07;2.15;;;1.65;;
22449;SDS011;11392;57.390;-2.468;2023-07-13T06:17:35;1.80;;;1.60;;
22449;SDS011;11392;57.390;-2.468;2023-07-13T06:20:02;1.60;;;1.50;;
22449;SDS011;11392;57.390;-2.468;2023-07-13T06:22:29;1.55;;;1.45;;
22449;SDS011;11392;57.390;-2.468;2023-07-13T06:24:56;2.60;;;1.52;;
22449;SDS011;11392;57.390;-2.468;2023-07-13T06:27:23;2.22;;;1.40;;
22449;SDS011;11392;57.390;-2.468;2023-07-13T06:29:51;1.92;;;1.55;;
22449;SDS011;11392;57.390;-2.468;2023-07-13T06:32:18;2.47;;;1.58;;
22449;SDS011;11392;57.390;-2.468;2023-07-13T06:34:45;1.88;;;1.70;;
22449;SDS011;11392;57.390;-2.468;2023-07-13T06:37:12;1.63;;;1.52;;
22449;SDS011;11392;57.390;-2.468;2023-07-13T06:39:39;3.00;;;2.28;;
22449;SDS011;11392;57.390;-2.468;2023-07-13T06:42:06;2.35;;;1.85;;
22449;SDS011;11392;57.390;-2.468;2023-07-13T06:44:33;2.95;;;2.10;;
22449;SDS011;11392;57.390;-2.468;2023-07-13T06:47:00;2.08;;;1.98;;
22449;SDS011;11392;57.390;-2.468;2023-07-13T06:49:27;1.52;;;1.42;;
22449;SDS011;11392;57.390;-2.468;2023-07-13T06:51:54;1.77;;;1.25;;
22449;SDS011;11392;57.390;-2.468;2023-07-13T06:54:21;1.83;;;1.73;;
22449;SDS011;11392;57.390;-2.468;2023-07-13T06:56:48;1.40;;;1.30;;
22449;SDS011;11392;57.390;-2.468;2023-07-13T06:59:15;1.38;;;1.27;;
22449;SDS011;11392;57.390;-2.468;2023-07-13T07:01:43;2.22;;;1.60;;
22449;SDS011;11392;57.390;-2.468;2023-07-13T07:04:10;2.03;;;1.30;;
22449;SDS011;11392;57.390;-2.468;2023-07-13T07:06:37;3.25;;;1.70;;
22449;SDS011;11392;57.390;-2.468;2023-07-13T07:09:04;1.98;;;1.20;;
22449;SDS011;11392;57.390;-2.468;2023-07-13T07:11:31;1.23;;;1.13;;
22449;SDS011;11392;57.390;-2.468;2023-07-13T07:13:58;1.50;;;1.40;;
22449;SDS011;11392;57.390;-2.468;2023-07-13T07:16:25;1.45;;;1.35;;
22449;SDS011;11392;57.390;-2.468;2023-07-13T07:18:53;3.20;;;1.27;;
22449;SDS011;11392;57.390;-2.468;2023-07-13T07:21:20;1.20;;;1.10;;
22449;SDS011;11392;57.390;-2.468;2023-07-13T07:23:49;1.40;;;1.15;;
22449;SDS011;11392;57.390;-2.468;2023-07-13T07:26:17;1.35;;;1.25;;
22449;SDS011;11392;57.390;-2.468;2023-07-13T07:28:44;1.45;;;1.27;;
22449;SDS011;11392;57.390;-2.468;2023-07-13T07:31:31;0.90;;;0.90;;
22449;SDS011;11392;57.390;-2.468;2023-07-13T07:34:01;1.60;;;1.10;;
22449;SDS011;11392;57.390;-2.468;2023-07-13T07:36:29;1.05;;;0.98;;
22449;SDS011;11392;57.390;-2.468;2023-07-13T07:38:58;2.35;;;1.45;;
22449;SDS011;11392;57.390;-2.468;2023-07-13T07:41:25;1.63;;;1.52;;
22449;SDS011;11392;57.390;-2.468;2023-07-13T07:43:55;1.52;;;1.02;;
22449;SDS011;11392;57.390;-2.468;2023-07-13T07:46:22;2.45;;;1.30;;
22449;SDS011;11392;57.390;-2.468;2023-07-13T07:48:49;1.23;;;1.13;;
22449;SDS011;11392;57.390;-2.468;2023-07-13T07:51:16;2.05;;;1.45;;
22449;SDS011;11392;57.390;-2.468;2023-07-13T07:53:43;2.22;;;1.30;;
22449;SDS011;11392;57.390;-2.468;2023-07-13T07:56:10;2.05;;;1.10;;
22449;SDS011;11392;57.390;-2.468;2023-07-13T07:58:40;1.83;;;1.30;;
22449;SDS011;11392;57.390;-2.468;2023-07-13T08:01:10;1.35;;;1.25;;
22449;SDS011;11392;57.390;-2.468;2023-07-13T08:03:40;1.45;;;1.35;;
22449;SDS011;11392;57.390;-2.468;2023-07-13T08:06:10;1.70;;;1.42;;
22449;SDS011;11392;57.390;-2.468;2023-07-13T08:08:40;2.08;;;1.23;;
22449;SDS011;11392;57.390;-2.468;2023-07-13T08:11:07;1.73;;;1.52;;
22449;SDS011;11392;57.390;-2.468;2023-07-13T08:13:37;1.90;;;1.50;;
22449;SDS011;11392;57.390;-2.468;2023-07-13T08:16:05;1.85;;;1.20;;
22449;SDS011;11392;57.390;-2.468;2023-07-13T08:18:32;1.30;;;1.20;;
22449;SDS011;11392;57.390;-2.468;2023-07-13T08:21:06;1.90;;;1.20;;
22449;SDS011;11392;57.390;-2.468;2023-07-13T08:23:34;3.13;;;1.35;;
22449;SDS011;11392;57.390;-2.468;2023-07-13T08:26:01;1.30;;;1.20;;
22449;SDS011;11392;57.390;-2.468;2023-07-13T08:28:30;1.17;;;1.15;;
22449;SDS011;11392;57.390;-2.468;2023-07-13T08:31:05;1.48;;;1.33;;
22449;SDS011;11392;57.390;-2.468;2023-07-13T08:33:34;2.40;;;1.30;;
22449;SDS011;11392;57.390;-2.468;2023-07-13T08:36:02;2.75;;;1.65;;
22449;SDS011;11392;57.390;-2.468;2023-07-13T08:38:29;1.23;;;1.13;;
22449;SDS011;11392;57.390;-2.468;2023-07-13T08:40:56;1.55;;;1.35;;
22449;SDS011;11392;57.390;-2.468;2023-07-13T08:43:28;2.20;;;1.50;;
22449;SDS011;11392;57.390;-2.468;2023-07-13T08:46:15;1.20;;;1.20;;
22449;SDS011;11392;57.390;-2.468;2023-07-13T08:48:56;1.27;;;1.17;;
22449;SDS011;11392;57.390;-2.468;2023-07-13T08:54:56;1.70;;;1.48;;
22449;SDS011;11392;57.390;-2.468;2023-07-13T08:57:08;1.35;;;1.23;;
22449;SDS011;11392;57.390;-2.468;2023-07-13T08:59:39;1.10;;;1.10;;
22449;SDS011;11392;57.390;-2.468;2023-07-13T09:10:26;1.25;;;1.00;;
22449;SDS011;11392;57.390;-2.468;2023-07-13T09:15:52;1.17;;;1.10;;
22449;SDS011;11392;57.390;-2.468;2023-07-13T09:18:21;1.15;;;1.05;;
22449;SDS011;11392;57.390;-2.468;2023-07-13T09:21:02;1.45;;;1.35;;
22449;SDS011;11392;57.390;-2.468;2023-07-13T09:23:34;1.33;;;1.23;;
22449;SDS011;11392;57.390;-2.468;2023-07-13T09:26:21;1.75;;;1.10;;
22449;SDS011;11392;57.390;-2.468;2023-07-13T09:29:14;1.00;;;0.90;;
22449;SDS011;11392;57.390;-2.468;2023-07-13T09:32:01;1.13;;;1.00;;
22449;SDS011;11392;57.390;-2.468;2023-07-13T09:34:30;1.63;;;1.00;;
22449;SDS011;11392;57.390;-2.468;2023-07-13T09:36:59;1.13;;;1.10;;
22449;SDS011;11392;57.390;-2.468;2023-07-13T09:39:31;0.95;;;0.93;;
22449;SDS011;11392;57.390;-2.468;2023-07-13T09:44:39;1.02;;;0.93;;
22449;SDS011;11392;57.390;-2.468;2023-07-13T09:50:00;1.00;;;0.90;;
22449;SDS011;11392;57.390;-2.468;2023-07-13T09:55:37;1.42;;;0.93;;
22449;SDS011;11392;57.390;-2.468;2023-07-13T10:00:44;1.83;;;1.10;;
22449;SDS011;11392;57.390;-2.468;2023-07-13T10:03:26;1.52;;;0.90;;
22449;SDS011;11392;57.390;-2.468;2023-07-13T10:06:00;1.50;;;1.05;;
22449;SDS011;11392;57.390;-2.468;2023-07-13T10:08:38;1.00;;;1.00;;
22449;SDS011;11392;57.390;-2.468;2023-07-13T10:11:12;1.30;;;1.10;;
22449;SDS011;11392;57.390;-2.468;2023-07-13T10:13:53;0.90;;;0.90;;
22449;SDS011;11392;57.390;-2.468;2023-07-13T10:16:24;1.10;;;0.98;;
22449;SDS011;11392;57.390;-2.468;2023-07-13T10:18:57;2.78;;;1.05;;
22449;SDS011;11392;57.390;-2.468;2023-07-13T10:21:34;3.97;;;0.90;;
22449;SDS011;11392;57.390;-2.468;2023-07-13T10:24:24;1.40;;;1.05;;
22449;SDS011;11392;57.390;-2.468;2023-07-13T10:27:05;1.60;;;1.50;;
22449;SDS011;11392;57.390;-2.468;2023-07-13T10:29:51;1.20;;;1.10;;
22449;SDS011;11392;57.390;-2.468;2023-07-13T10:32:25;2.35;;;1.17;;
22449;SDS011;11392;57.390;-2.468;2023-07-13T10:34:52;1.15;;;1.05;;
22449;SDS011;11392;57.390;-2.468;2023-07-13T10:37:22;1.33;;;1.23;;
22449;SDS011;11392;57.390;-2.468;2023-07-13T10:39:57;1.90;;;1.10;;
22449;SDS011;11392;57.390;-2.468;2023-07-13T10:42:30;1.25;;;1.17;;
22449;SDS011;11392;57.390;-2.468;2023-07-13T10:45:01;1.67;;;1.58;;
22449;SDS011;11392;57.390;-2.468;2023-07-13T10:47:38;1.15;;;1.00;;
22449;SDS011;11392;57.390;-2.468;2023-07-13T10:50:07;2.20;;;1.17;;
22449;SDS011;11392;57.390;-2.468;2023-07-13T10:52:51;0.93;;;0.93;;
22449;SDS011;11392;57.390;-2.468;2023-07-13T11:01:03;1.30;;;1.20;;
22449;SDS011;11392;57.390;-2.468;2023-07-13T11:03:38;1.10;;;1.00;;
22449;SDS011;11392;57.390;-2.468;2023-07-13T11:06:17;1.77;;;0.93;;
22449;SDS011;11392;57.390;-2.468;2023-07-13T11:09:03;5.05;;;1.65;;
22449;SDS011;11392;57.390;-2.468;2023-07-13T11:11:46;1.83;;;1.13;;
22449;SDS011;11392;57.390;-2.468;2023-07-13T11:20:30;1.30;;;1.15;;
22449;SDS011;11392;57.390;-2.468;2023-07-13T11:25:38;1.60;;;1.00;;
22449;SDS011;11392;57.390;-2.468;2023-07-13T11:28:11;1.33;;;1.10;;
22449;SDS011;11392;57.390;-2.468;2023-07-13T11:30:49;1.80;;;1.10;;
22449;SDS011;11392;57.390;-2.468;2023-07-13T11:33:49;0.80;;;0.80;;
22449;SDS011;11392;57.390;-2.468;2023-07-13T11:36:23;1.95;;;1.15;;
22449;SDS011;11392;57.390;-2.468;2023-07-13T11:39:02;0.90;;;0.90;;
22449;SDS011;11392;57.390;-2.468;2023-07-13T11:41:52;2.13;;;0.98;;
22449;SDS011;11392;57.390;-2.468;2023-07-13T11:44:24;1.40;;;1.27;;
22449;SDS011;11392;57.390;-2.468;2023-07-13T11:46:54;1.52;;;1.10;;
22449;SDS011;11392;57.390;-2.468;2023-07-13T11:49:24;1.13;;;1.02;;
22449;SDS011;11392;57.390;-2.468;2023-07-13T11:51:53;1.42;;;1.23;;
22449;SDS011;11392;57.390;-2.468;2023-07-13T11:56:57;2.58;;;1.50;;
22449;SDS011;11392;57.390;-2.468;2023-07-13T11:59:29;2.03;;;1.00;;
22449;SDS011;11392;57.390;-2.468;2023-07-13T12:01:58;1.20;;;1.10;;
22449;SDS011;11392;57.390;-2.468;2023-07-13T12:04:26;1.30;;;1.20;;
22449;SDS011;11392;57.390;-2.468;2023-07-13T12:06:58;1.45;;;1.35;;
22449;SDS011;11392;57.390;-2.468;2023-07-13T12:09:32;1.40;;;1.30;;
22449;SDS011;11392;57.390;-2.468;2023-07-13T12:12:02;1.42;;;1.15;;
22449;SDS011;11392;57.390;-2.468;2023-07-13T12:14:33;1.50;;;1.40;;
22449;SDS011;11392;57.390;-2.468;2023-07-13T12:17:00;1.10;;;1.10;;
22449;SDS011;11392;57.390;-2.468;2023-07-13T12:19:28;1.73;;;1.35;;
22449;SDS011;11392;57.390;-2.468;2023-07-13T12:21:56;1.27;;;1.17;;
22449;SDS011;11392;57.390;-2.468;2023-07-13T12:24:25;1.50;;;1.40;;
22449;SDS011;11392;57.390;-2.468;2023-07-13T12:27:01;1.63;;;1.45;;
22449;SDS011;11392;57.390;-2.468;2023-07-13T12:29:31;2.10;;;1.98;;
22449;SDS011;11392;57.390;-2.468;2023-07-13T12:31:59;1.70;;;1.48;;
22449;SDS011;11392;57.390;-2.468;2023-07-13T12:34:26;1.73;;;1.63;;
22449;SDS011;11392;57.390;-2.468;2023-07-13T12:36:55;1.70;;;1.60;;
22449;SDS011;11392;57.390;-2.468;2023-07-13T12:39:35;2.42;;;1.83;;
22449;SDS011;11392;57.390;-2.468;2023-07-13T12:42:37;1.70;;;1.60;;
22449;SDS011;11392;57.390;-2.468;2023-07-13T12:45:20;2.30;;;1.17;;
22449;SDS011;11392;57.390;-2.468;2023-07-13T12:47:52;2.80;;;2.20;;
22449;SDS011;11392;57.390;-2.468;2023-07-13T12:50:22;2.28;;;2.08;;
22449;SDS011;11392;57.390;-2.468;2023-07-13T12:52:56;2.80;;;2.42;;
22449;SDS011;11392;57.390;-2.468;2023-07-13T12:55:29;3.50;;;2.80;;
22449;SDS011;11392;57.390;-2.468;2023-07-13T12:57:59;3.30;;;2.67;;
22449;SDS011;11392;57.390;-2.468;2023-07-13T13:00:32;2.25;;;2.00;;
22449;SDS011;11392;57.390;-2.468;2023-07-13T13:03:12;1.95;;;1.85;;
22449;SDS011;11392;57.390;-2.468;2023-07-13T13:06:17;4.95;;;3.25;;
22449;SDS011;11392;57.390;-2.468;2023-07-13T13:08:54;8.73;;;3.05;;
22449;SDS011;11392;57.390;-2.468;2023-07-13T13:11:24;2.05;;;1.67;;
22449;SDS011;11392;57.390;-2.468;2023-07-13T13:13:53;1.65;;;1.40;;
22449;SDS011;11392;57.390;-2.468;2023-07-13T13:16:34;1.27;;;1.17;;
22449;SDS011;11392;57.390;-2.468;2023-07-13T13:19:18;1.40;;;1.30;;
22449;SDS011;11392;57.390;-2.468;2023-07-13T13:21:54;1.27;;;1.17;;
22449;SDS011;11392;57.390;-2.468;2023-07-13T13:24:24;2.13;;;1.30;;
22449;SDS011;11392;57.390;-2.468;2023-07-13T13:26:53;1.80;;;1.60;;
22449;SDS011;11392;57.390;-2.468;2023-07-13T13:29:24;1.02;;;1.02;;
22449;SDS011;11392;57.390;-2.468;2023-07-13T13:31:52;2.25;;;1.05;;
22449;SDS011;11392;57.390;-2.468;2023-07-13T13:34:20;1.20;;;1.10;;
22449;SDS011;11392;57.390;-2.468;2023-07-13T13:36:52;1.77;;;1.40;;
22449;SDS011;11392;57.390;-2.468;2023-07-13T13:39:29;1.30;;;1.20;;
22449;SDS011;11392;57.390;-2.468;2023-07-13T13:42:01;1.98;;;1.38;;
22449;SDS011;11392;57.390;-2.468;2023-07-13T13:44:29;3.22;;;1.77;;
22449;SDS011;11392;57.390;-2.468;2023-07-13T13:46:56;3.08;;;1.45;;
22449;SDS011;11392;57.390;-2.468;2023-07-13T13:49:25;2.80;;;1.48;;
22449;SDS011;11392;57.390;-2.468;2023-07-13T13:51:53;1.00;;;0.90;;
22449;SDS011;11392;57.390;-2.468;2023-07-13T13:54:21;0.85;;;0.80;;
22449;SDS011;11392;57.390;-2.468;2023-07-13T13:56:50;1.38;;;0.95;;
22449;SDS011;11392;57.390;-2.468;2023-07-13T13:59:18;0.95;;;0.93;;
22449;SDS011;11392;57.390;-2.468;2023-07-13T14:01:46;1.38;;;0.90;;
22449;SDS011;11392;57.390;-2.468;2023-07-13T14:04:19;1.27;;;0.90;;
22449;SDS011;11392;57.390;-2.468;2023-07-13T14:06:48;1.17;;;1.00;;
22449;SDS011;11392;57.390;-2.468;2023-07-13T14:09:17;1.25;;;0.90;;
22449;SDS011;11392;57.390;-2.468;2023-07-13T14:11:46;1.95;;;1.00;;
22449;SDS011;11392;57.390;-2.468;2023-07-13T14:14:17;0.82;;;0.80;;
22449;SDS011;11392;57.390;-2.468;2023-07-13T14:16:50;0.95;;;0.85;;
22449;SDS011;11392;57.390;-2.468;2023-07-13T14:19:21;0.90;;;0.82;;
22449;SDS011;11392;57.390;-2.468;2023-07-13T14:21:49;1.25;;;1.00;;
22449;SDS011;11392;57.390;-2.468;2023-07-13T14:24:16;0.80;;;0.80;;
22449;SDS011;11392;57.390;-2.468;2023-07-13T14:26:45;1.48;;;1.10;;
22449;SDS011;11392;57.390;-2.468;2023-07-13T14:29:16;0.90;;;0.90;;
22449;SDS011;11392;57.390;-2.468;2023-07-13T14:31:49;4.50;;;2.35;;
22449;SDS011;11392;57.390;-2.468;2023-07-13T14:34:16;1.00;;;0.90;;
22449;SDS011;11392;57.390;-2.468;2023-07-13T14:36:44;0.80;;;0.80;;
22449;SDS011;11392;57.390;-2.468;2023-07-13T14:39:15;0.80;;;0.80;;
22449;SDS011;11392;57.390;-2.468;2023-07-13T14:41:44;1.05;;;0.95;;
22449;SDS011;11392;57.390;-2.468;2023-07-13T14:44:12;0.90;;;0.90;;
22449;SDS011;11392;57.390;-2.468;2023-07-13T14:46:41;0.90;;;0.80;;
22449;SDS011;11392;57.390;-2.468;2023-07-13T14:49:15;2.25;;;0.70;;
22449;SDS011;11392;57.390;-2.468;2023-07-13T14:51:49;0.98;;;0.60;;
22449;SDS011;11392;57.390;-2.468;2023-07-13T14:54:17;1.55;;;0.80;;
22449;SDS011;11392;57.390;-2.468;2023-07-13T14:56:44;0.85;;;0.85;;
22449;SDS011;11392;57.390;-2.468;2023-07-13T14:59:11;0.88;;;0.77;;
22449;SDS011;11392;57.390;-2.468;2023-07-13T15:01:39;0.70;;;0.70;;
22449;SDS011;11392;57.390;-2.468;2023-07-13T15:04:06;3.22;;;0.90;;
22449;SDS011;11392;57.390;-2.468;2023-07-13T15:06:53;1.85;;;0.98;;
22449;SDS011;11392;57.390;-2.468;2023-07-13T15:09:22;0.68;;;0.68;;
22449;SDS011;11392;57.390;-2.468;2023-07-13T15:11:53;1.08;;;0.80;;
22449;SDS011;11392;57.390;-2.468;2023-07-13T15:14:22;1.13;;;0.65;;
22449;SDS011;11392;57.390;-2.468;2023-07-13T15:16:51;2.05;;;0.90;;
22449;SDS011;11392;57.390;-2.468;2023-07-13T15:19:20;0.90;;;0.90;;
22449;SDS011;11392;57.390;-2.468;2023-07-13T15:21:49;0.70;;;0.70;;
22449;SDS011;11392;57.390;-2.468;2023-07-13T15:24:18;1.15;;;0.90;;
22449;SDS011;11392;57.390;-2.468;2023-07-13T15:26:47;1.00;;;0.93;;
22449;SDS011;11392;57.390;-2.468;2023-07-13T15:29:15;0.77;;;0.70;;
22449;SDS011;11392;57.390;-2.468;2023-07-13T15:31:43;1.02;;;0.82;;
22449;SDS011;11392;57.390;-2.468;2023-07-13T15:34:13;1.00;;;0.90;;